Time;durP1;ratioP1;P1;durP2;ratioP2;P2;SDS_P1;SDS_P2;PMS_P1;PMS_P2;Temp;Humidity;BMP_temperature;BMP_pressure;BME280_temperature;BME280_humidity;BME280_pressure;Samples;Min_cycle;Max_cycle;Signal;HPM_P1;HPM_P2
2021/12/10 00:00:44;;;;;;;7.47;2.40;;;7.70;66.40;;;-142.21;100.00;112049.66;5010751;28;20485;-81
2021/12/10 00:03:17;;;;;;;6.53;2.73;;;7.60;66.60;;;-142.21;100.00;112049.66;5004824;28;20449;-81
2021/12/10 00:05:50;;;;;;;4.80;2.30;;;7.60;66.70;;;-142.21;100.00;112049.66;5006124;28;20935;-81
2021/12/10 00:08:19;;;;;;;7.57;2.70;;;7.60;66.40;;;-142.21;100.00;112049.66;4997404;28;20549;-81
2021/12/10 00:10:52;;;;;;;6.47;2.80;;;7.60;66.40;;;-142.21;100.00;112049.66;4996967;28;20478;-80
2021/12/10 00:13:20;;;;;;;7.47;3.33;;;7.60;66.40;;;-142.21;100.00;112049.66;4998595;28;20541;-80
2021/12/10 00:15:47;;;;;;;8.13;5.53;;;7.50;66.50;;;-142.21;100.00;112049.66;5000639;28;20486;-79
2021/12/10 00:18:19;;;;;;;4.23;2.97;;;7.50;66.20;;;-142.21;100.00;112049.66;5001905;28;20446;-79
2021/12/10 00:20:50;;;;;;;7.00;4.03;;;7.50;66.00;;;-142.21;100.00;112049.66;5002760;28;20506;-80
2021/12/10 00:23:21;;;;;;;6.30;3.43;;;7.50;66.00;;;-142.21;100.00;112049.66;5004007;28;20789;-80
2021/12/10 00:25:53;;;;;;;10.18;3.45;;;7.50;66.00;;;-142.21;100.00;112049.66;5015455;28;20446;-80
2021/12/10 00:28:24;;;;;;;7.82;3.38;;;7.50;66.20;;;-142.21;100.00;112049.66;5011215;28;20203;-80
2021/12/10 00:31:05;;;;;;;5.80;4.00;;;7.50;66.40;;;-142.21;100.00;112049.66;5000619;28;20267;-81
2021/12/10 00:33:41;;;;;;;6.57;3.07;;;7.40;66.20;;;-142.21;100.00;112049.66;4997451;28;20530;-81
2021/12/10 00:36:09;;;;;;;5.77;2.57;;;7.40;66.20;;;-142.21;100.00;112049.66;5006381;28;20469;-79
2021/12/10 00:38:38;;;;;;;5.38;2.53;;;7.40;66.40;;;-142.21;100.00;112049.66;5002909;28;20869;-80
2021/12/10 00:41:07;;;;;;;4.07;2.33;;;7.40;66.20;;;-142.21;100.00;112049.66;5010008;28;20211;-81
2021/12/10 00:43:36;;;;;;;4.03;2.50;;;7.40;66.30;;;-142.21;100.00;112049.66;5013311;28;20481;-81
2021/12/10 00:46:04;;;;;;;4.43;2.50;;;7.30;66.10;;;-142.21;100.00;112049.66;4996187;28;20886;-81
2021/12/10 00:48:33;;;;;;;4.57;2.63;;;7.30;66.50;;;-142.21;100.00;112049.66;4999029;28;20553;-80
2021/12/10 00:51:04;;;;;;;6.80;3.20;;;7.20;66.20;;;-142.21;100.00;112049.66;5012466;28;20484;-81
2021/12/10 00:53:32;;;;;;;5.50;2.60;;;7.20;66.10;;;-142.21;100.00;112049.66;5002886;28;20482;-81
2021/12/10 00:56:00;;;;;;;5.70;2.10;;;7.20;66.00;;;-142.21;100.00;112049.66;4997290;28;20259;-81
2021/12/10 00:58:29;;;;;;;7.70;2.50;;;7.20;66.30;;;-142.21;100.00;112049.66;5002506;28;20585;-80
2021/12/10 01:01:01;;;;;;;4.37;2.40;;;7.20;67.30;;;-142.21;100.00;112049.66;5014630;28;20512;-80
2021/12/10 01:03:33;;;;;;;4.47;2.37;;;7.20;66.70;;;-142.21;100.00;112049.66;5004062;28;20439;-79
2021/12/10 01:06:07;;;;;;;6.90;3.00;;;7.20;66.50;;;-142.21;100.00;112049.66;4995761;28;20455;-81
2021/12/10 01:08:38;;;;;;;4.47;2.50;;;7.20;66.30;;;-142.21;100.00;112049.66;5007106;28;20454;-81
2021/12/10 01:11:12;;;;;;;6.17;2.60;;;7.20;66.10;;;-142.21;100.00;112049.66;5014713;28;20203;-81
2021/12/10 01:13:44;;;;;;;5.50;2.50;;;7.20;65.90;;;-142.21;100.00;112049.66;4999154;28;20930;-81
2021/12/10 01:25:04;;;;;;;10.02;2.90;;;6.90;66.40;;;-142.21;100.00;112049.66;5012979;28;20473;-81
2021/12/10 01:27:36;;;;;;;5.53;2.47;;;6.90;66.50;;;-142.21;100.00;112049.66;4999130;28;20250;-80
2021/12/10 01:30:13;;;;;;;6.38;2.70;;;6.80;66.20;;;-142.21;100.00;112049.66;4989150;28;20521;-80
2021/12/10 01:32:47;;;;;;;6.60;2.83;;;6.80;66.40;;;-142.21;100.00;112049.66;4999045;28;20644;-81
2021/12/10 01:35:21;;;;;;;5.47;2.55;;;6.70;66.00;;;-142.21;100.00;112049.66;5014005;28;20446;-81
2021/12/10 01:37:52;;;;;;;4.45;2.20;;;6.60;66.40;;;-142.21;100.00;112049.66;5010732;28;20199;-80
2021/12/10 01:40:22;;;;;;;5.18;2.50;;;6.60;66.00;;;-142.21;100.00;112049.66;5013803;28;20227;-82
2021/12/10 01:42:54;;;;;;;5.93;2.45;;;6.60;66.00;;;-142.21;100.00;112049.66;5000456;28;20204;-81
2021/12/10 01:45:28;;;;;;;3.45;2.35;;;6.60;65.90;;;-142.21;100.00;112049.66;4995561;28;20239;-80
2021/12/10 01:48:06;;;;;;;4.83;2.57;;;6.50;66.50;;;-142.21;100.00;112049.66;5005142;28;20288;-81
2021/12/10 01:50:36;;;;;;;7.15;2.55;;;6.50;66.70;;;-142.21;100.00;112049.66;4995354;28;20578;-80
2021/12/10 01:53:11;;;;;;;5.50;2.50;;;6.40;67.00;;;-142.21;100.00;112049.66;4994802;28;20299;-80
2021/12/10 01:55:44;;;;;;;5.50;2.67;;;6.30;66.90;;;-142.21;100.00;112049.66;4994974;28;20654;-80
2021/12/10 01:58:18;;;;;;;4.38;2.78;;;6.30;67.00;;;-142.21;100.00;112049.66;4996593;28;20294;-80
2021/12/10 02:00:51;;;;;;;3.08;2.30;;;6.30;67.10;;;-142.21;100.00;112049.66;5014446;28;20290;-80
2021/12/10 02:03:21;;;;;;;5.28;2.80;;;6.20;66.80;;;-142.21;100.00;112049.66;4994861;28;20214;-81
2021/12/10 02:05:49;;;;;;;5.30;2.60;;;6.30;66.60;;;-142.21;100.00;112049.66;4995666;28;20196;-80
2021/12/10 02:08:18;;;;;;;4.20;2.78;;;6.20;66.20;;;-142.21;100.00;112049.66;4995785;28;20235;-80
2021/12/10 02:10:46;;;;;;;7.38;3.10;;;6.20;67.10;;;-142.21;100.00;112049.66;4994337;28;20269;-80
2021/12/10 02:13:13;;;;;;;4.40;2.53;;;6.10;67.00;;;-142.21;100.00;112049.66;5000037;28;20234;-80
2021/12/10 02:15:41;;;;;;;5.90;2.70;;;6.10;67.10;;;-142.21;100.00;112049.66;4997611;28;20200;-80
2021/12/10 02:18:12;;;;;;;5.00;2.45;;;6.10;66.80;;;-142.21;100.00;112049.66;5006133;28;20281;-80
2021/12/10 02:20:51;;;;;;;6.82;2.63;;;6.10;66.90;;;-142.21;100.00;112049.66;5013277;28;20552;-80
2021/12/10 02:23:19;;;;;;;6.53;2.67;;;6.10;67.00;;;-142.21;100.00;112049.66;5001178;28;20619;-79
2021/12/10 02:25:48;;;;;;;5.90;3.08;;;6.00;66.70;;;-142.21;100.00;112049.66;5000426;28;20695;-80
2021/12/10 02:28:16;;;;;;;4.43;2.70;;;6.00;66.70;;;-142.21;100.00;112049.66;5000410;28;20280;-79
2021/12/10 02:30:45;;;;;;;5.70;3.15;;;6.00;66.90;;;-142.21;100.00;112049.66;5003141;28;20322;-80
2021/12/10 02:33:13;;;;;;;4.28;3.20;;;5.90;66.70;;;-142.21;100.00;112049.66;4999526;28;20711;-80
2021/12/10 02:35:40;;;;;;;6.50;2.77;;;6.00;66.90;;;-142.21;100.00;112049.66;5012359;28;20671;-81
2021/12/10 02:38:10;;;;;;;6.65;3.33;;;5.90;66.60;;;-142.21;100.00;112049.66;5011058;28;20509;-79
2021/12/10 02:40:39;;;;;;;6.45;2.60;;;5.90;67.00;;;-142.21;100.00;112049.66;4994247;28;20295;-79
2021/12/10 02:43:11;;;;;;;4.75;2.90;;;5.90;67.10;;;-142.21;100.00;112049.66;5008431;28;20303;-78
2021/12/10 02:45:42;;;;;;;5.22;2.65;;;5.80;67.60;;;-142.21;100.00;112049.66;5002946;28;20233;-79
2021/12/10 02:48:09;;;;;;;3.25;2.53;;;5.70;68.40;;;-142.21;100.00;112049.66;4999340;28;20703;-80
2021/12/10 02:50:38;;;;;;;4.75;2.70;;;5.70;67.40;;;-142.21;100.00;112049.66;4994568;28;20247;-78
2021/12/10 02:53:10;;;;;;;7.15;3.20;;;5.70;67.30;;;-142.21;100.00;112049.66;5002921;28;20295;-79
2021/12/10 02:55:39;;;;;;;5.05;2.75;;;5.80;68.20;;;-142.21;100.00;112049.66;5007704;28;20251;-79
2021/12/10 02:58:12;;;;;;;5.00;2.72;;;5.80;67.20;;;-142.21;100.00;112049.66;5008425;28;20219;-78
2021/12/10 03:00:47;;;;;;;4.13;2.70;;;5.90;67.60;;;-142.21;100.00;112049.66;5013407;28;20298;-79
2021/12/10 03:03:14;;;;;;;5.18;2.65;;;5.70;67.50;;;-142.21;100.00;112049.66;4997206;28;20319;-80
2021/12/10 03:05:42;;;;;;;6.68;3.25;;;5.60;67.50;;;-142.21;100.00;112049.66;4993676;28;20231;-79
2021/12/10 03:08:11;;;;;;;6.93;2.72;;;5.50;68.30;;;-142.21;100.00;112049.66;5006171;28;20199;-79
2021/12/10 03:10:40;;;;;;;5.88;2.83;;;5.50;68.70;;;-142.21;100.00;112049.66;4999614;28;20727;-78
2021/12/10 03:13:09;;;;;;;8.65;2.80;;;5.50;68.20;;;-142.21;100.00;112049.66;4996703;28;20235;-79
2021/12/10 03:15:38;;;;;;;6.63;2.90;;;5.60;68.00;;;-142.21;100.00;112049.66;4993702;28;20670;-79
2021/12/10 03:18:08;;;;;;;6.10;2.78;;;5.60;68.30;;;-142.21;100.00;112049.66;5007865;28;20279;-79
2021/12/10 03:20:36;;;;;;;5.03;2.50;;;5.50;68.10;;;-142.21;100.00;112049.66;5001018;28;20199;-78
2021/12/10 03:23:06;;;;;;;4.90;2.40;;;5.40;68.00;;;-142.21;100.00;112049.66;5012534;28;20230;-79
2021/12/10 03:25:35;;;;;;;4.80;2.63;;;5.50;67.90;;;-142.21;100.00;112049.66;4996276;28;20263;-79
2021/12/10 03:28:02;;;;;;;5.10;2.40;;;5.50;67.70;;;-142.21;100.00;112049.66;4995247;28;20304;-79
2021/12/10 03:30:36;;;;;;;4.43;2.20;;;5.50;67.40;;;-142.21;100.00;112049.66;4994004;28;20315;-79
2021/12/10 03:33:05;;;;;;;6.55;2.38;;;5.60;67.70;;;-142.21;100.00;112049.66;4977790;28;20215;-79
2021/12/10 03:35:41;;;;;;;6.20;3.22;;;5.40;68.50;;;-142.21;100.00;112049.66;4993354;28;20215;-78
2021/12/10 03:38:11;;;;;;;6.65;2.95;;;5.50;68.70;;;-142.21;100.00;112049.66;5008868;28;20200;-78
2021/12/10 03:40:40;;;;;;;5.70;2.75;;;5.30;67.80;;;-142.21;100.00;112049.66;4993547;28;20188;-79
2021/12/10 03:43:14;;;;;;;5.18;2.53;;;5.30;65.90;;;-142.21;100.00;112049.66;5008319;28;20291;-78
2021/12/10 03:45:47;;;;;;;4.00;2.67;;;5.30;65.20;;;-142.21;100.00;112049.66;5003194;28;20234;-78
2021/12/10 03:48:19;;;;;;;2.63;2.10;;;5.20;65.20;;;-142.21;100.00;112049.66;5015373;28;20318;-77
2021/12/10 03:50:49;;;;;;;4.53;2.30;;;5.10;66.60;;;-142.21;100.00;112049.66;5008692;28;20369;-79
2021/12/10 03:53:18;;;;;;;4.88;2.60;;;5.10;67.40;;;-142.21;100.00;112049.66;5010915;28;20644;-79
2021/12/10 03:55:48;;;;;;;3.85;2.10;;;5.10;67.70;;;-142.21;100.00;112049.66;5014725;28;20207;-77
2021/12/10 03:58:16;;;;;;;3.78;2.30;;;5.20;67.90;;;-142.21;100.00;112049.66;5000869;28;20307;-79
2021/12/10 04:00:48;;;;;;;5.63;2.50;;;5.20;67.90;;;-142.21;100.00;112049.66;5003401;28;20286;-78
2021/12/10 04:03:19;;;;;;;7.95;2.53;;;5.20;67.80;;;-142.21;100.00;112049.66;5000967;28;20739;-79
2021/12/10 04:05:47;;;;;;;4.07;2.90;;;5.20;67.60;;;-142.21;100.00;112049.66;5012497;28;20288;-80
2021/12/10 04:08:15;;;;;;;5.30;2.35;;;5.20;67.60;;;-142.21;100.00;112049.66;4996927;28;20287;-79
2021/12/10 04:10:44;;;;;;;4.45;2.50;;;5.30;67.60;;;-142.21;100.00;112049.66;4996760;28;20286;-79
2021/12/10 04:13:14;;;;;;;2.47;2.13;;;5.20;67.70;;;-142.21;100.00;112049.66;5009364;28;20254;-79
2021/12/10 04:15:42;;;;;;;4.70;2.20;;;5.20;67.60;;;-142.21;100.00;112049.66;5015109;28;20302;-79
2021/12/10 04:18:11;;;;;;;3.47;2.45;;;5.20;67.50;;;-142.21;100.00;112049.66;4993590;28;20303;-79
2021/12/10 04:20:41;;;;;;;2.90;2.30;;;5.20;67.80;;;-142.21;100.00;112049.66;4997226;28;20223;-79
2021/12/10 04:23:12;;;;;;;4.22;2.30;;;5.20;68.10;;;-142.21;100.00;112049.66;5008143;28;20234;-79
2021/12/10 04:25:41;;;;;;;5.07;2.47;;;5.20;67.00;;;-142.21;100.00;112049.66;5015402;28;20207;-79
2021/12/10 04:28:15;;;;;;;4.90;2.35;;;5.20;67.00;;;-142.21;100.00;112049.66;4996336;28;20211;-79
2021/12/10 04:30:45;;;;;;;4.28;2.30;;;5.10;67.60;;;-142.21;100.00;112049.66;4996310;28;20311;-79
2021/12/10 04:33:17;;;;;;;4.28;2.22;;;5.20;67.30;;;-142.21;100.00;112049.66;4999220;28;20199;-79
2021/12/10 04:35:47;;;;;;;3.42;2.00;;;5.20;68.00;;;-142.21;100.00;112049.66;4997811;28;20192;-79
2021/12/10 04:38:15;;;;;;;4.65;2.22;;;5.20;67.80;;;-142.21;100.00;112049.66;5007799;28;20294;-80
2021/12/10 04:40:46;;;;;;;2.92;2.15;;;5.20;67.60;;;-142.21;100.00;112049.66;5003559;28;20203;-80
2021/12/10 04:43:16;;;;;;;4.45;2.33;;;5.20;67.60;;;-142.21;100.00;112049.66;5011933;28;20203;-80
2021/12/10 04:45:43;;;;;;;4.03;2.10;;;5.20;67.30;;;-142.21;100.00;112049.66;5015006;28;20235;-79
2021/12/10 04:48:11;;;;;;;5.25;2.45;;;5.20;67.20;;;-142.21;100.00;112049.66;5008409;28;20696;-79
2021/12/10 04:50:39;;;;;;;5.20;2.42;;;5.20;67.50;;;-142.21;100.00;112049.66;5012960;28;20314;-79
2021/12/10 04:53:11;;;;;;;5.32;3.05;;;5.20;67.80;;;-142.21;100.00;112049.66;4996271;28;20211;-79
2021/12/10 04:55:40;;;;;;;6.95;2.60;;;5.20;67.70;;;-142.21;100.00;112049.66;4995798;28;20254;-79
2021/12/10 04:58:09;;;;;;;5.50;2.45;;;5.20;67.70;;;-142.21;100.00;112049.66;4996098;28;20208;-80
2021/12/10 05:00:43;;;;;;;7.00;2.47;;;5.20;67.50;;;-142.21;100.00;112049.66;5000031;28;20235;-79
2021/12/10 05:03:11;;;;;;;4.50;2.40;;;5.20;67.60;;;-142.21;100.00;112049.66;4999639;28;20188;-80
2021/12/10 05:05:41;;;;;;;3.47;2.00;;;5.30;67.50;;;-142.21;100.00;112049.66;5011347;28;20238;-80
2021/12/10 05:08:10;;;;;;;3.70;2.00;;;5.30;67.70;;;-142.21;100.00;112049.66;5011822;28;20295;-79
2021/12/10 05:10:40;;;;;;;4.78;2.15;;;5.30;67.80;;;-142.21;100.00;112049.66;5014066;28;20357;-79
2021/12/10 05:13:08;;;;;;;4.82;2.10;;;5.40;67.10;;;-142.21;100.00;112049.66;5015346;28;20215;-80
2021/12/10 05:15:39;;;;;;;5.55;2.20;;;5.30;66.60;;;-142.21;100.00;112049.66;5015406;28;20253;-79
2021/12/10 05:18:12;;;;;;;6.82;2.40;;;5.40;66.90;;;-142.21;100.00;112049.66;5014604;28;20199;-80
2021/12/10 05:20:44;;;;;;;6.15;2.20;;;5.20;66.70;;;-142.21;100.00;112049.66;4996645;28;20220;-81
2021/12/10 05:23:14;;;;;;;5.78;2.17;;;5.30;67.20;;;-142.21;100.00;112049.66;4995246;28;20267;-80
2021/12/10 05:25:41;;;;;;;4.53;2.13;;;5.40;66.70;;;-142.21;100.00;112049.66;4996732;28;20223;-80
2021/12/10 05:28:09;;;;;;;3.65;2.03;;;5.40;67.50;;;-142.21;100.00;112049.66;4998435;28;20208;-80
2021/12/10 05:30:39;;;;;;;5.72;2.10;;;5.40;67.20;;;-142.21;100.00;112049.66;5001672;28;20302;-79
2021/12/10 05:33:13;;;;;;;4.20;1.98;;;5.40;67.20;;;-142.21;100.00;112049.66;5004387;28;20212;-80
2021/12/10 05:35:41;;;;;;;5.22;2.33;;;5.40;66.90;;;-142.21;100.00;112049.66;5000665;28;20305;-80
2021/12/10 05:38:09;;;;;;;6.13;2.40;;;5.50;66.60;;;-142.21;100.00;112049.66;5013596;28;20227;-81
2021/12/10 05:40:36;;;;;;;4.03;2.22;;;5.40;66.90;;;-142.21;100.00;112049.66;5013563;28;20222;-79
2021/12/10 05:43:04;;;;;;;6.20;2.65;;;5.40;67.10;;;-142.21;100.00;112049.66;5010969;28;20227;-80
2021/12/10 05:45:32;;;;;;;4.65;2.17;;;5.40;67.70;;;-142.21;100.00;112049.66;5014628;28;20211;-79
2021/12/10 05:48:00;;;;;;;4.72;2.20;;;5.40;67.10;;;-142.21;100.00;112049.66;5006183;28;20242;-80
2021/12/10 05:50:30;;;;;;;4.80;2.42;;;5.40;67.10;;;-142.21;100.00;112049.66;5009943;28;20318;-79
2021/12/10 05:52:57;;;;;;;5.63;2.63;;;5.40;67.10;;;-142.21;100.00;112049.66;5009325;28;20675;-80
2021/12/10 05:55:25;;;;;;;4.15;2.72;;;5.50;66.90;;;-142.21;100.00;112049.66;5009170;28;20199;-79
2021/12/10 05:57:54;;;;;;;6.28;3.03;;;5.50;66.60;;;-142.21;100.00;112049.66;5004978;28;20705;-80
2021/12/10 06:00:26;;;;;;;6.20;2.80;;;5.50;65.60;;;-142.21;100.00;112049.66;5005384;28;20204;-81
2021/12/10 06:02:54;;;;;;;5.78;3.75;;;5.50;66.50;;;-142.21;100.00;112049.66;5013693;28;20234;-79
2021/12/10 06:05:24;;;;;;;6.82;3.90;;;5.50;65.50;;;-142.21;100.00;112049.66;5004758;28;20220;-80
2021/12/10 06:07:51;;;;;;;6.22;4.30;;;5.50;66.20;;;-142.21;100.00;112049.66;4995709;28;20200;-80
2021/12/10 06:10:22;;;;;;;6.53;4.38;;;5.50;66.30;;;-142.21;100.00;112049.66;5011110;28;20334;-79
2021/12/10 06:12:52;;;;;;;4.88;3.95;;;5.40;66.10;;;-142.21;100.00;112049.66;5010003;28;20230;-80
2021/12/10 06:15:23;;;;;;;5.13;4.15;;;5.60;66.50;;;-142.21;100.00;112049.66;5010150;28;20294;-80
2021/12/10 06:17:51;;;;;;;7.72;4.13;;;5.50;66.50;;;-142.21;100.00;112049.66;4999105;28;20253;-81
2021/12/10 06:20:24;;;;;;;5.85;4.28;;;5.40;66.20;;;-142.21;100.00;112049.66;5001163;28;20296;-80
2021/12/10 06:22:52;;;;;;;5.93;4.40;;;5.40;66.40;;;-142.21;100.00;112049.66;4994438;28;20204;-82
2021/12/10 06:25:20;;;;;;;7.47;4.40;;;5.50;66.30;;;-142.21;100.00;112049.66;4995253;28;20763;-83
2021/12/10 06:27:47;;;;;;;7.55;4.65;;;5.50;65.70;;;-142.21;100.00;112049.66;5008856;28;20298;-81
2021/12/10 06:30:18;;;;;;;7.88;5.05;;;5.40;66.00;;;-142.21;100.00;112049.66;4999882;28;20731;-81
2021/12/10 06:32:47;;;;;;;7.78;4.93;;;5.50;66.30;;;-142.21;100.00;112049.66;4994992;28;20230;-81
2021/12/10 06:35:16;;;;;;;9.02;5.13;;;5.50;66.00;;;-142.21;100.00;112049.66;5009761;28;20230;-82
2021/12/10 06:37:46;;;;;;;7.97;4.43;;;5.50;66.20;;;-142.21;100.00;112049.66;5001675;28;20208;-81
2021/12/10 06:40:18;;;;;;;7.50;4.53;;;5.40;66.30;;;-142.21;100.00;112049.66;4994739;28;20719;-82
2021/12/10 06:42:46;;;;;;;7.50;5.00;;;5.50;66.70;;;-142.21;100.00;112049.66;5012156;28;20628;-79
2021/12/10 06:45:18;;;;;;;6.63;5.18;;;5.50;65.80;;;-142.21;100.00;112049.66;5006401;28;20234;-79
2021/12/10 06:47:48;;;;;;;5.93;4.90;;;5.60;66.40;;;-142.21;100.00;112049.66;5012945;28;20251;-77
2021/12/10 06:50:18;;;;;;;6.72;4.78;;;5.50;66.00;;;-142.21;100.00;112049.66;5011859;28;20270;-77
2021/12/10 06:52:47;;;;;;;6.65;4.70;;;5.60;65.80;;;-142.21;100.00;112049.66;5002078;28;20191;-77
2021/12/10 06:55:15;;;;;;;5.53;4.40;;;5.70;65.80;;;-142.21;100.00;112049.66;5011934;28;20253;-76
2021/12/10 06:57:43;;;;;;;7.07;4.40;;;5.70;65.40;;;-142.21;100.00;112049.66;5004456;28;20284;-77
2021/12/10 07:00:16;;;;;;;6.60;4.88;;;5.60;65.40;;;-142.21;100.00;112049.66;4996310;28;20303;-78
2021/12/10 07:02:44;;;;;;;7.50;4.95;;;5.70;65.30;;;-142.21;100.00;112049.66;4996566;28;20231;-77
2021/12/10 07:05:12;;;;;;;6.43;4.60;;;5.60;65.00;;;-142.21;100.00;112049.66;4996755;28;20223;-77
2021/12/10 07:07:40;;;;;;;6.75;4.88;;;5.70;65.00;;;-142.21;100.00;112049.66;5001658;28;20270;-78
2021/12/10 07:10:11;;;;;;;485.85;58.92;;;5.70;65.40;;;-142.21;100.00;112049.66;5011628;28;20223;-77
2021/12/10 07:12:41;;;;;;;9.27;5.13;;;5.80;65.20;;;-142.21;100.00;112049.66;4994404;28;20211;-78
2021/12/10 07:15:13;;;;;;;7.88;4.35;;;5.80;65.10;;;-142.21;100.00;112049.66;4997994;28;20636;-76
2021/12/10 07:17:47;;;;;;;7.57;4.53;;;5.80;64.70;;;-142.21;100.00;112049.66;5004592;28;20257;-78
2021/12/10 07:20:17;;;;;;;7.35;4.55;;;5.80;64.90;;;-142.21;100.00;112049.66;4997017;28;20655;-78
2021/12/10 07:22:44;;;;;;;5.95;4.38;;;5.80;65.10;;;-142.21;100.00;112049.66;5009788;28;20217;-78
2021/12/10 07:25:14;;;;;;;8.73;4.97;;;5.90;64.40;;;-142.21;100.00;112049.66;4999759;28;20306;-80
2021/12/10 07:27:42;;;;;;;6.28;4.28;;;5.90;64.30;;;-142.21;100.00;112049.66;4999760;28;20262;-79
2021/12/10 07:30:11;;;;;;;5.30;4.30;;;6.00;64.40;;;-142.21;100.00;112049.66;5006836;28;20298;-79
2021/12/10 07:32:39;;;;;;;7.90;4.40;;;5.90;64.40;;;-142.21;100.00;112049.66;5005429;28;20244;-82
2021/12/10 07:35:09;;;;;;;6.93;5.20;;;6.00;64.20;;;-142.21;100.00;112049.66;5001238;28;20231;-79
2021/12/10 07:37:37;;;;;;;7.90;5.00;;;5.90;64.20;;;-142.21;100.00;112049.66;5010318;28;20207;-80
2021/12/10 07:40:10;;;;;;;5.15;4.10;;;5.90;64.10;;;-142.21;100.00;112049.66;5008176;28;20200;-79
2021/12/10 07:42:39;;;;;;;5.45;4.82;;;6.00;64.30;;;-142.21;100.00;112049.66;5000939;28;20199;-80
2021/12/10 07:45:09;;;;;;;5.05;4.05;;;6.00;63.80;;;-142.21;100.00;112049.66;5012012;28;20643;-81
2021/12/10 07:47:37;;;;;;;5.18;4.25;;;6.00;63.40;;;-142.21;100.00;112049.66;5011972;28;20257;-79
2021/12/10 07:50:09;;;;;;;6.45;4.70;;;6.00;63.20;;;-142.21;100.00;112049.66;5012049;28;20200;-80
2021/12/10 07:52:37;;;;;;;6.40;3.97;;;5.90;63.50;;;-142.21;100.00;112049.66;5011837;28;20758;-81
2021/12/10 07:55:10;;;;;;;5.28;4.13;;;6.00;63.20;;;-142.21;100.00;112049.66;5012192;28;20241;-79
2021/12/10 07:57:39;;;;;;;6.40;3.80;;;6.00;63.80;;;-142.21;100.00;112049.66;4994986;28;20287;-79
2021/12/10 08:00:13;;;;;;;6.43;4.50;;;6.00;62.90;;;-142.21;100.00;112049.66;4988876;28;20517;-80
2021/12/10 08:02:40;;;;;;;4.60;4.10;;;6.10;63.10;;;-142.21;100.00;112049.66;4974039;28;20326;-78
2021/12/10 08:05:09;;;;;;;6.20;3.90;;;6.20;63.50;;;-142.21;100.00;112049.66;4969345;28;20216;-79
2021/12/10 08:07:37;;;;;;;7.10;4.03;;;6.30;62.70;;;-142.21;100.00;112049.66;4986810;28;20571;-80
2021/12/10 08:10:06;;;;;;;5.20;3.80;;;6.50;62.00;;;-142.21;100.00;112049.66;4981662;28;20211;-80
2021/12/10 08:12:34;;;;;;;4.43;3.67;;;6.60;61.70;;;-142.21;100.00;112049.66;5005336;28;20220;-79
2021/12/10 08:15:05;;;;;;;6.95;4.05;;;6.70;61.50;;;-142.21;100.00;112049.66;4992943;28;20263;-79
2021/12/10 08:17:32;;;;;;;5.22;4.00;;;6.80;61.50;;;-142.21;100.00;112049.66;4992460;28;20220;-79
2021/12/10 08:20:01;;;;;;;5.70;3.95;;;6.80;61.30;;;-142.21;100.00;112049.66;4991982;28;20208;-79
2021/12/10 08:22:29;;;;;;;5.57;3.85;;;6.80;60.70;;;-142.21;100.00;112049.66;4977296;28;20570;-79
2021/12/10 08:24:56;;;;;;;6.60;3.95;;;6.80;60.90;;;-142.21;100.00;112049.66;5005448;28;20259;-77
2021/12/10 08:27:24;;;;;;;6.87;3.67;;;6.80;60.10;;;-142.21;100.00;112049.66;5012665;28;20273;-78
2021/12/10 08:29:51;;;;;;;4.85;3.67;;;6.80;60.10;;;-142.21;100.00;112049.66;5013247;28;20512;-79
2021/12/10 08:32:21;;;;;;;5.38;3.70;;;6.80;59.80;;;-142.21;100.00;112049.66;5006334;28;20279;-80
2021/12/10 08:34:50;;;;;;;5.32;3.30;;;6.80;60.00;;;-142.21;100.00;112049.66;4978720;28;20314;-80
2021/12/10 08:37:18;;;;;;;5.10;3.20;;;6.80;59.90;;;-142.21;100.00;112049.66;4997331;28;20218;-81
2021/12/10 08:39:48;;;;;;;4.90;3.60;;;6.80;59.90;;;-142.21;100.00;112049.66;5012527;28;20460;-78
2021/12/10 08:42:16;;;;;;;6.73;3.23;;;6.90;59.60;;;-142.21;100.00;112049.66;5006958;28;20512;-81
2021/12/10 08:44:45;;;;;;;5.15;3.40;;;6.90;59.80;;;-142.21;100.00;112049.66;4989378;28;20870;-79
2021/12/10 08:47:15;;;;;;;3.90;3.50;;;6.90;60.00;;;-142.21;100.00;112049.66;5002634;28;20247;-78
2021/12/10 08:49:44;;;;;;;4.10;3.50;;;6.90;59.40;;;-142.21;100.00;112049.66;5007486;28;20454;-79
2021/12/10 08:52:14;;;;;;;3.90;2.97;;;6.90;59.80;;;-142.21;100.00;112049.66;5007545;28;20548;-81
2021/12/10 08:54:43;;;;;;;3.40;2.80;;;7.00;60.00;;;-142.21;99.65;112049.66;5003359;28;20465;-80
2021/12/10 08:57:11;;;;;;;4.72;3.33;;;7.00;59.20;;;-142.21;100.00;112049.66;5009311;28;20555;-79
2021/12/10 08:59:39;;;;;;;3.40;3.10;;;7.00;59.10;;;-142.21;100.00;112049.66;4999521;28;20588;-80
2021/12/10 09:02:13;;;;;;;3.30;2.97;;;7.00;59.20;;;-142.21;99.98;112049.66;4994838;28;20475;-80
2021/12/10 09:04:44;;;;;;;4.03;3.20;;;7.00;58.80;;;-142.21;98.09;112049.66;4997304;28;20451;-82
2021/12/10 09:07:17;;;;;;;4.17;2.90;;;7.10;58.40;;;-142.21;98.06;112049.66;5008727;28;20564;-83
2021/12/10 09:09:48;;;;;;;3.33;2.60;;;7.10;58.20;;;-142.21;96.95;112049.66;4994749;28;20446;-81
2021/12/10 09:12:21;;;;;;;3.57;2.80;;;7.20;58.20;;;-142.21;98.26;112049.66;5008532;28;20974;-82
2021/12/10 09:14:53;;;;;;;4.07;2.50;;;7.20;58.30;;;-142.21;97.52;112049.66;4989486;28;20541;-82
2021/12/10 09:17:26;;;;;;;3.70;2.80;;;7.30;58.40;;;-142.21;97.27;112049.66;4978969;28;20958;-81
2021/12/10 09:20:00;;;;;;;5.03;2.72;;;7.40;57.90;;;-142.21;97.54;112049.66;4995609;28;20908;-81
2021/12/10 09:22:28;;;;;;;4.47;2.67;;;7.40;58.10;;;-142.21;98.44;112049.66;4995142;28;20200;-81
2021/12/10 09:24:59;;;;;;;3.97;2.73;;;7.40;58.00;;;-142.21;98.48;112049.66;5008897;28;20541;-81
2021/12/10 09:27:27;;;;;;;3.87;2.87;;;7.50;58.10;;;-142.21;97.42;112049.66;5013629;28;20822;-81
2021/12/10 09:29:56;;;;;;;4.57;3.10;;;7.60;57.70;;;-142.21;97.41;112049.66;5014237;28;20441;-80
2021/12/10 09:32:26;;;;;;;3.22;2.83;;;7.70;56.90;;;-142.21;97.50;112049.66;5008038;28;20483;-81
2021/12/10 09:35:02;;;;;;;4.77;2.93;;;7.70;57.30;;;-142.21;97.49;112049.66;5001717;28;20203;-80
2021/12/10 09:37:30;;;;;;;4.37;3.00;;;7.60;56.80;;;-142.21;98.93;112049.66;5007437;28;20957;-80
2021/12/10 09:39:58;;;;;;;4.33;3.10;;;7.60;57.40;;;-142.21;98.93;112049.66;5013431;28;20450;-80
2021/12/10 09:42:25;;;;;;;4.43;2.90;;;7.60;57.10;;;-142.21;99.47;112049.66;5001014;28;20878;-81
2021/12/10 09:44:56;;;;;;;7.20;2.85;;;7.60;57.50;;;-142.21;100.00;112049.66;4994110;28;20506;-81
2021/12/10 09:47:23;;;;;;;3.83;2.70;;;7.60;57.90;;;-142.21;100.00;112049.66;4995210;28;20287;-80
2021/12/10 09:49:55;;;;;;;4.50;2.83;;;7.70;58.00;;;-142.21;100.00;112049.66;4994467;28;20455;-81
2021/12/10 09:52:28;;;;;;;4.30;2.80;;;7.80;58.00;;;-142.21;100.00;112049.66;4994986;28;20577;-80
2021/12/10 09:54:56;;;;;;;5.33;3.10;;;7.80;58.20;;;-142.21;100.00;112049.66;5010929;28;20454;-82
2021/12/10 09:57:28;;;;;;;5.00;3.17;;;7.80;58.40;;;-142.21;100.00;112049.66;5013716;28;20864;-80
2021/12/10 09:59:58;;;;;;;5.23;3.33;;;7.80;58.40;;;-142.21;100.00;112049.66;5010899;28;20450;-80
2021/12/10 10:02:26;;;;;;;4.97;3.00;;;7.80;59.20;;;-142.21;100.00;112049.66;5012846;28;20928;-80
2021/12/10 10:04:56;;;;;;;5.10;3.00;;;7.90;59.50;;;-142.21;100.00;112049.66;4998666;28;20490;-80
2021/12/10 10:07:28;;;;;;;5.37;3.13;;;8.00;58.80;;;-142.21;100.00;112049.66;4994751;28;20455;-81
2021/12/10 10:10:03;;;;;;;4.10;3.10;;;8.00;58.80;;;-142.21;100.00;112049.66;4995120;28;20486;-79
2021/12/10 10:12:35;;;;;;;5.23;3.13;;;8.00;59.70;;;-142.21;100.00;112049.66;4994210;28;20510;-80
2021/12/10 10:15:08;;;;;;;5.47;3.13;;;8.00;59.50;;;-142.21;100.00;112049.66;4994079;28;20451;-78
2021/12/10 10:17:35;;;;;;;5.87;3.07;;;8.10;59.20;;;-142.21;100.00;112049.66;5004558;28;20501;-80
2021/12/10 10:20:08;;;;;;;4.00;3.03;;;8.00;58.90;;;-142.21;100.00;112049.66;4997731;28;20506;-79